createdAt,value
2018-04-14T00:01:25.274Z,12.10
2018-04-14T00:06:21.031Z,12.00
2018-04-14T00:11:16.697Z,11.90
2018-04-14T00:13:44.922Z,11.90
2018-04-14T00:16:12.242Z,11.90
2018-04-14T00:18:39.607Z,12.00
2018-04-14T00:21:07.707Z,12.10
2018-04-14T00:23:35.087Z,12.10
2018-04-14T00:26:02.600Z,12.10
2018-04-14T00:28:29.951Z,12.20
2018-04-14T00:30:57.358Z,12.40
2018-04-14T00:33:25.458Z,12.50
2018-04-14T00:35:52.832Z,12.60
2018-04-14T00:40:48.491Z,12.50
2018-04-14T00:43:16.295Z,12.50
2018-04-14T00:45:43.690Z,12.60
2018-04-14T00:48:11.134Z,12.80
2018-04-14T00:50:39.273Z,13.00
2018-04-14T00:53:19.112Z,13.10
2018-04-14T00:55:47.114Z,13.10
2018-04-14T00:58:14.478Z,13.20
2018-04-14T01:00:41.874Z,13.20
2018-04-14T01:03:09.962Z,13.20
2018-04-14T01:05:37.332Z,13.20
2018-04-14T01:08:05.426Z,13.20
2018-04-14T01:10:32.763Z,13.30
2018-04-14T01:13:00.903Z,13.30
2018-04-14T01:15:28.289Z,13.40
2018-04-14T01:17:56.385Z,13.40
2018-04-14T01:20:23.755Z,13.50
2018-04-14T01:25:19.367Z,13.50
2018-04-14T01:27:46.731Z,13.50
2018-04-14T01:30:14.092Z,13.60
2018-04-14T01:32:41.474Z,13.60
2018-04-14T01:35:09.056Z,13.60
2018-04-14T01:37:36.879Z,13.60
2018-04-14T01:40:05.038Z,13.60
2018-04-14T01:42:32.411Z,13.60
2018-04-14T01:44:59.741Z,13.70
2018-04-14T01:47:27.874Z,13.60
2018-04-14T01:57:20.224Z,13.60
2018-04-14T02:04:45.160Z,13.60
2018-04-14T02:07:12.486Z,13.60
2018-04-14T02:09:39.846Z,13.60
2018-04-14T02:14:36.666Z,13.50
2018-04-14T02:19:33.192Z,13.50
2018-04-14T02:22:01.261Z,13.60
2018-04-14T02:24:29.635Z,13.60
2018-04-14T02:26:57.745Z,13.50
2018-04-14T02:29:25.226Z,13.60
2018-04-14T02:34:20.971Z,13.60
2018-04-14T02:41:45.649Z,13.50
2018-04-14T02:44:13.086Z,13.40
2018-04-14T02:49:09.724Z,13.30
2018-04-14T02:51:37.096Z,13.20
2018-04-14T02:54:04.650Z,13.10
2018-04-14T02:56:32.011Z,13.00
2018-04-14T03:01:27.685Z,13.20
2018-04-14T03:03:55.178Z,13.30
2018-04-14T03:06:23.403Z,13.40
2018-04-14T03:08:50.783Z,13.50
2018-04-14T03:13:47.217Z,13.60
2018-04-14T03:18:43.774Z,13.60
2018-04-14T03:21:11.138Z,13.70
2018-04-14T03:23:38.503Z,13.70
2018-04-14T03:26:05.875Z,13.60
2018-04-14T03:31:01.468Z,13.60
2018-04-14T03:33:28.919Z,13.50
2018-04-14T03:35:56.294Z,13.50
2018-04-14T03:38:24.511Z,13.40
2018-04-14T03:40:51.886Z,13.40
2018-04-14T03:43:19.277Z,13.40
2018-04-14T03:45:47.450Z,13.40
2018-04-14T03:50:43.110Z,13.40
2018-04-14T03:53:11.356Z,13.40
2018-04-14T03:55:38.728Z,13.40
2018-04-14T03:58:06.172Z,13.40
2018-04-14T04:03:02.567Z,13.10
2018-04-14T04:05:30.702Z,13.10
2018-04-14T04:07:58.023Z,13.10
2018-04-14T04:10:26.157Z,13.10
2018-04-14T04:12:53.491Z,13.20
2018-04-14T04:17:49.915Z,13.00
2018-04-14T04:20:29.238Z,13.10
2018-04-14T04:28:06.055Z,13.10
2018-04-14T04:33:01.558Z,13.10
2018-04-14T04:37:57.043Z,13.10
2018-04-14T04:40:24.231Z,13.10
2018-04-14T04:42:51.567Z,13.30
2018-04-14T04:45:19.574Z,13.20
2018-04-14T04:47:46.774Z,13.30
2018-04-14T04:52:42.919Z,13.40
2018-04-14T04:55:11.055Z,13.40
2018-04-14T04:57:38.314Z,13.40
2018-04-14T05:00:05.659Z,13.50
2018-04-14T05:02:32.905Z,13.50
2018-04-14T05:05:00.081Z,13.40
2018-04-14T05:07:27.320Z,13.40
2018-04-14T05:09:54.534Z,13.50
2018-04-14T05:12:22.571Z,13.50
2018-04-14T05:14:49.789Z,13.60
2018-04-14T05:17:17.026Z,13.70
2018-04-14T05:19:44.270Z,13.70
2018-04-14T05:22:11.498Z,13.80
2018-04-14T05:24:39.465Z,13.80
2018-04-14T05:27:07.451Z,13.80
2018-04-14T05:29:34.707Z,13.80
2018-04-14T05:32:01.936Z,13.90
2018-04-14T05:36:57.290Z,14.00
2018-04-14T05:39:24.706Z,14.00
2018-04-14T05:44:20.123Z,14.10
2018-04-14T05:46:47.423Z,14.10
2018-04-14T05:49:14.663Z,14.30
2018-04-14T05:51:42.804Z,14.40
2018-04-14T05:56:38.967Z,14.60
2018-04-14T06:01:34.305Z,14.80
2018-04-14T06:04:01.522Z,14.90
2018-04-14T06:06:28.788Z,15.00
2018-04-14T06:08:56.979Z,15.00
2018-04-14T06:11:24.219Z,15.10
2018-04-14T06:16:20.384Z,14.90
2018-04-14T06:18:48.552Z,15.20
2018-04-14T06:21:15.773Z,15.20
2018-04-14T06:26:12.736Z,15.60
2018-04-14T06:31:08.104Z,15.40
2018-04-14T06:33:35.435Z,15.40
2018-04-14T06:36:03.407Z,15.40
2018-04-14T06:38:30.714Z,15.70
2018-04-14T06:40:57.994Z,15.60
2018-04-14T06:43:25.248Z,15.60
2018-04-14T06:48:20.732Z,16.30
2018-04-14T06:50:48.049Z,16.60
2018-04-14T06:53:16.078Z,16.80
2018-04-14T06:55:44.050Z,16.80
2018-04-14T06:58:11.263Z,17.10
2018-04-14T07:00:38.489Z,17.30
2018-04-14T07:03:05.686Z,16.80
2018-04-14T07:05:32.930Z,16.70
2018-04-14T07:08:00.127Z,16.90
2018-04-14T07:10:27.532Z,16.80
2018-04-14T07:15:22.986Z,16.90
2018-04-14T07:17:50.250Z,17.50
2018-04-14T07:20:18.300Z,18.00
2018-04-14T07:25:13.678Z,18.70
2018-04-14T07:27:42.090Z,19.00
2018-04-14T07:30:09.301Z,19.30
2018-04-14T07:32:36.532Z,19.50
2018-04-14T07:35:03.803Z,19.60
2018-04-14T07:39:59.335Z,20.00
2018-04-14T07:42:27.331Z,19.90
2018-04-14T07:44:54.995Z,19.90
2018-04-14T07:47:22.297Z,20.20
2018-04-14T07:49:49.509Z,20.50
2018-04-14T07:54:44.946Z,20.80
2018-04-14T07:57:12.154Z,20.80
2018-04-14T07:59:40.217Z,20.80
2018-04-14T08:02:08.320Z,21.10
2018-04-14T08:07:03.915Z,21.40
2018-04-14T08:09:31.240Z,21.70
2018-04-14T08:11:59.222Z,22.00
2018-04-14T08:16:54.944Z,22.80
2018-04-14T08:19:22.911Z,23.10
2018-04-14T08:24:18.376Z,23.50
2018-04-14T08:26:45.628Z,23.60
2018-04-14T08:29:12.885Z,23.80
2018-04-14T08:31:40.439Z,24.10
2018-04-14T08:34:08.367Z,24.40
2018-04-14T08:39:03.695Z,25.60
2018-04-14T08:41:31.661Z,26.10
2018-04-14T08:43:59.536Z,26.70
2018-04-14T08:46:27.569Z,26.90
2018-04-14T08:49:00.784Z,27.30
2018-04-14T08:51:30.686Z,27.50
2018-04-14T08:53:57.931Z,27.70
2018-04-14T08:56:25.483Z,27.80
2018-04-14T08:58:53.563Z,27.80
2018-04-14T09:01:21.628Z,27.90
2018-04-14T09:03:49.205Z,28.00
2018-04-14T09:06:17.179Z,28.20
2018-04-14T09:11:13.664Z,28.40
2018-04-14T09:13:40.956Z,28.70
2018-04-14T09:16:08.271Z,29.10
2018-04-14T09:21:08.809Z,29.30
2018-04-14T09:23:37.159Z,29.40
2018-04-14T09:26:04.724Z,29.70
2018-04-14T09:28:32.180Z,30.20
2018-04-14T09:30:59.564Z,30.60
2018-04-14T09:33:27.752Z,30.70
2018-04-14T09:35:55.259Z,30.50
2018-04-14T09:38:23.592Z,30.70
2018-04-14T09:40:51.739Z,30.80
2018-04-14T09:43:19.903Z,30.80
2018-04-14T09:45:48.067Z,30.80
2018-04-14T09:48:15.850Z,31.00
2018-04-14T09:50:43.250Z,30.80
2018-04-14T09:53:10.670Z,30.90
2018-04-14T09:55:38.035Z,31.20
2018-04-14T09:58:05.437Z,31.50
2018-04-14T10:00:32.874Z,31.90
2018-04-14T10:03:00.328Z,31.40
2018-04-14T10:05:27.729Z,31.60
2018-04-14T10:07:55.276Z,32.20
2018-04-14T10:10:22.761Z,31.70
2018-04-14T10:12:50.296Z,31.70
2018-04-14T10:15:17.712Z,31.60
2018-04-14T10:17:45.817Z,31.60
2018-04-14T10:20:13.202Z,31.30
2018-04-14T10:22:40.583Z,31.20
2018-04-14T10:25:09.291Z,30.60
2018-04-14T10:27:36.726Z,30.70
2018-04-14T10:32:32.473Z,31.80
2018-04-14T10:35:00.881Z,32.30
2018-04-14T10:37:28.267Z,32.20
2018-04-14T10:39:55.722Z,32.80
2018-04-14T10:42:23.119Z,33.00
2018-04-14T10:44:50.698Z,33.30
2018-04-14T10:47:18.179Z,32.50
2018-04-14T10:49:45.597Z,32.70
2018-04-14T10:52:13.038Z,32.20
2018-04-14T10:54:41.342Z,32.20
2018-04-14T10:57:08.953Z,31.90
2018-04-14T10:59:37.308Z,31.40
2018-04-14T11:02:04.762Z,31.90
2018-04-14T11:04:32.243Z,32.70
2018-04-14T11:06:59.665Z,33.30
2018-04-14T11:09:27.910Z,32.30
2018-04-14T11:11:55.641Z,29.70
2018-04-14T11:14:23.279Z,28.70
2018-04-14T11:16:50.730Z,28.30
2018-04-14T11:19:25.792Z,27.70
2018-04-14T11:22:02.496Z,27.50
2018-04-14T11:24:29.927Z,27.50
2018-04-14T11:27:00.037Z,27.70
2018-04-14T11:29:30.222Z,27.80
2018-04-14T11:31:57.651Z,28.20
2018-04-14T11:34:26.808Z,28.80
2018-04-14T11:36:54.141Z,29.70
2018-04-14T11:39:21.761Z,30.10
2018-04-14T11:41:49.153Z,30.60
2018-04-14T11:44:16.662Z,31.20
2018-04-14T11:46:44.091Z,30.80
2018-04-14T11:49:12.201Z,29.60
2018-04-14T11:51:41.533Z,29.70
2018-04-14T11:54:10.752Z,29.50
2018-04-14T11:56:38.177Z,29.00
2018-04-14T11:59:06.418Z,28.80
2018-04-14T12:01:34.624Z,29.10
2018-04-14T12:04:02.906Z,29.40
2018-04-14T12:06:30.301Z,29.70
2018-04-14T12:09:01.967Z,31.30
2018-04-14T12:11:37.020Z,32.50
2018-04-14T12:14:05.119Z,33.40
2018-04-14T12:16:34.150Z,33.60
2018-04-14T12:21:30.575Z,32.40
2018-04-14T12:23:57.981Z,31.60
2018-04-14T12:26:26.106Z,30.80
2018-04-14T12:28:53.514Z,30.60
2018-04-14T12:33:49.901Z,33.00
2018-04-14T12:36:17.284Z,32.40
2018-04-14T12:38:44.830Z,31.40
2018-04-14T12:41:13.009Z,30.90
2018-04-14T12:43:40.418Z,30.50
2018-04-14T12:46:07.774Z,29.60
2018-04-14T12:48:35.338Z,29.00
2018-04-14T12:51:02.703Z,29.70
2018-04-14T12:53:30.087Z,30.00
2018-04-14T12:55:57.471Z,30.20
2018-04-14T12:58:24.943Z,30.00
2018-04-14T13:00:53.151Z,30.20
2018-04-14T13:03:20.550Z,30.90
2018-04-14T13:05:48.677Z,30.60
2018-04-14T13:08:16.015Z,30.60
2018-04-14T13:10:43.389Z,31.20
2018-04-14T13:13:10.864Z,32.30
2018-04-14T13:15:38.218Z,32.20
2018-04-14T13:20:34.841Z,32.50
2018-04-14T13:23:02.240Z,31.90
2018-04-14T13:25:30.453Z,31.40
2018-04-14T13:27:57.843Z,31.40
2018-04-14T13:30:25.284Z,31.80
2018-04-14T13:32:52.740Z,32.70
2018-04-14T13:35:20.126Z,32.80
2018-04-14T13:37:47.648Z,32.70
2018-04-14T13:40:15.073Z,32.10
2018-04-14T13:42:43.227Z,31.60
2018-04-14T13:45:11.452Z,31.20
2018-04-14T13:47:38.839Z,31.00
2018-04-14T13:50:06.395Z,31.30
2018-04-14T13:52:33.784Z,31.30
2018-04-14T13:55:01.168Z,31.10
2018-04-14T13:57:28.531Z,31.60
2018-04-14T13:59:55.921Z,31.90
2018-04-14T14:02:23.341Z,31.80
2018-04-14T14:04:50.732Z,31.40
2018-04-14T14:07:18.155Z,31.20
2018-04-14T14:09:45.607Z,31.40
2018-04-14T14:12:13.098Z,31.80
2018-04-14T14:17:09.525Z,31.50
2018-04-14T14:19:37.911Z,31.00
2018-04-14T14:22:06.091Z,30.90
2018-04-14T14:24:34.219Z,30.90
2018-04-14T14:29:30.815Z,30.70
2018-04-14T14:31:58.211Z,30.60
2018-04-14T14:36:54.027Z,30.60
2018-04-14T14:39:21.428Z,30.70
2018-04-14T14:41:49.538Z,30.20
2018-04-14T14:44:17.130Z,30.10
2018-04-14T14:46:45.270Z,29.40
2018-04-14T14:49:12.681Z,29.00
2018-04-14T14:51:40.056Z,28.90
2018-04-14T14:54:07.435Z,28.90
2018-04-14T14:56:34.933Z,29.00
2018-04-14T15:01:30.550Z,29.10
2018-04-14T15:03:57.926Z,29.10
2018-04-14T15:06:26.028Z,28.90
2018-04-14T15:08:53.472Z,28.80
2018-04-14T15:11:20.874Z,29.00
2018-04-14T15:13:48.238Z,29.30
2018-04-14T15:16:15.650Z,29.20
2018-04-14T15:21:11.347Z,29.00
2018-04-14T15:26:07.811Z,29.00
2018-04-14T15:28:35.279Z,29.20
2018-04-14T15:31:03.384Z,29.00
2018-04-14T15:33:30.849Z,28.90
2018-04-14T15:38:26.533Z,28.50
2018-04-14T15:40:54.711Z,28.40
2018-04-14T15:43:22.083Z,28.60
2018-04-14T15:45:49.508Z,28.60
2018-04-14T15:48:16.934Z,28.50
2018-04-14T15:50:45.200Z,28.30
2018-04-14T15:53:13.297Z,28.20
2018-04-14T15:55:41.423Z,28.30
2018-04-14T16:03:05.439Z,27.80
2018-04-14T16:08:01.964Z,27.50
2018-04-14T16:10:29.508Z,27.40
2018-04-14T16:15:25.274Z,27.30
2018-04-14T16:20:21.799Z,27.10
2018-04-14T16:25:17.477Z,27.10
2018-04-14T16:32:41.466Z,27.20
2018-04-14T16:35:08.851Z,27.10
2018-04-14T16:40:05.558Z,27.00
2018-04-14T16:42:32.951Z,26.90
2018-04-14T16:45:01.068Z,26.90
2018-04-14T16:47:28.466Z,26.90
2018-04-14T16:52:24.160Z,26.80
2018-04-14T16:54:52.240Z,26.70
2018-04-14T16:57:19.585Z,26.60
2018-04-14T16:59:47.713Z,26.50
2018-04-14T17:09:41.255Z,26.40
2018-04-14T17:12:08.649Z,26.40
2018-04-14T17:14:36.215Z,26.40
2018-04-14T17:17:03.563Z,26.40
2018-04-14T17:19:31.074Z,26.50
2018-04-14T17:21:59.170Z,26.50
2018-04-14T17:29:23.132Z,26.40
2018-04-14T17:31:51.263Z,26.30
2018-04-14T17:34:18.659Z,26.30
2018-04-14T17:39:14.358Z,26.20
2018-04-14T17:41:41.913Z,26.20
2018-04-14T17:49:06.648Z,25.90
2018-04-14T17:54:03.105Z,25.80
2018-04-14T17:58:59.643Z,25.70
2018-04-14T18:01:27.822Z,25.60
2018-04-14T18:06:25.198Z,25.60
2018-04-14T18:08:52.558Z,25.40
2018-04-14T18:11:19.982Z,25.20
2018-04-14T18:13:48.103Z,25.30
2018-04-14T18:16:16.382Z,24.70
2018-04-14T18:21:12.098Z,24.90
2018-04-14T18:23:39.500Z,25.00
2018-04-14T18:26:07.612Z,24.50
2018-04-14T18:28:35.079Z,24.30
2018-04-14T18:31:02.523Z,23.50
2018-04-14T18:33:29.939Z,23.50
2018-04-14T18:35:57.714Z,23.90
2018-04-14T18:38:25.119Z,23.20
2018-04-14T18:40:52.593Z,22.90
2018-04-14T18:43:20.021Z,23.20
2018-04-14T18:45:48.272Z,22.70
2018-04-14T18:50:44.911Z,23.30
2018-04-14T18:53:12.350Z,23.10
2018-04-14T18:58:08.066Z,23.60
2018-04-14T19:00:36.381Z,23.30
2018-04-14T19:03:03.730Z,23.60
2018-04-14T19:05:31.279Z,23.80
2018-04-14T19:07:58.658Z,24.10
2018-04-14T19:10:26.136Z,24.30
2018-04-14T19:12:53.539Z,24.10
2018-04-14T19:15:20.927Z,23.20
2018-04-14T19:17:49.188Z,23.60
2018-04-14T19:20:16.761Z,24.10
2018-04-14T19:22:44.506Z,24.50
2018-04-14T19:25:11.868Z,24.60
2018-04-14T19:27:40.348Z,24.70
2018-04-14T19:30:07.723Z,24.80
2018-04-14T19:35:04.371Z,24.70
2018-04-14T19:37:32.542Z,24.60
2018-04-14T19:39:59.947Z,24.60
2018-04-14T19:42:28.071Z,24.60
2018-04-14T19:47:23.962Z,24.20
2018-04-14T19:49:52.072Z,24.30
2018-04-14T19:54:47.797Z,24.50
2018-04-14T19:57:16.001Z,24.50
2018-04-14T19:59:44.068Z,24.50
2018-04-14T20:02:11.460Z,24.60
2018-04-14T20:04:41.598Z,24.60
2018-04-14T20:07:08.935Z,24.60
2018-04-14T20:09:37.072Z,24.40
2018-04-14T20:12:04.763Z,23.60
2018-04-14T20:17:00.712Z,22.40
2018-04-14T20:19:28.914Z,22.00
2018-04-14T20:21:56.507Z,22.00
2018-04-14T20:24:23.924Z,22.10
2018-04-14T20:26:51.267Z,22.10
2018-04-14T20:31:46.967Z,21.60
2018-04-14T20:39:11.159Z,21.30
2018-04-14T20:41:40.231Z,21.40
2018-04-14T20:44:08.446Z,21.30
2018-04-14T20:46:36.608Z,21.00
2018-04-14T20:49:04.271Z,21.00
2018-04-14T20:51:31.665Z,21.20
2018-04-14T20:53:59.042Z,21.30
2018-04-14T20:56:28.666Z,21.20
2018-04-14T20:58:56.112Z,20.80
2018-04-14T21:01:24.967Z,20.70
2018-04-14T21:03:53.057Z,20.90
2018-04-14T21:06:20.363Z,21.00
2018-04-14T21:08:49.124Z,21.20
2018-04-14T21:18:42.442Z,20.20
2018-04-14T21:23:39.458Z,20.80
2018-04-14T21:26:06.830Z,21.00
2018-04-14T21:28:35.214Z,20.90
2018-04-14T21:31:02.647Z,20.90
2018-04-14T21:33:30.036Z,20.80
2018-04-14T21:35:58.112Z,20.80
2018-04-14T21:38:26.248Z,20.70
2018-04-14T21:40:53.601Z,20.60
2018-04-14T21:43:21.007Z,19.80
2018-04-14T21:45:48.387Z,19.90
2018-04-14T21:48:16.519Z,20.20
2018-04-14T21:50:44.778Z,20.30
2018-04-14T21:53:12.267Z,20.40
2018-04-14T21:58:08.085Z,20.40
2018-04-14T22:00:36.206Z,20.20
2018-04-14T22:03:03.631Z,19.90
2018-04-14T22:05:31.014Z,19.80
2018-04-14T22:07:59.140Z,19.70
2018-04-14T22:10:26.531Z,19.80
2018-04-14T22:12:54.647Z,20.10
2018-04-14T22:15:22.838Z,20.20
2018-04-14T22:17:50.946Z,20.20
2018-04-14T22:20:19.192Z,20.10
2018-04-14T22:22:46.619Z,19.90
2018-04-14T22:25:13.952Z,19.50
2018-04-14T22:30:10.165Z,19.20
2018-04-14T22:32:38.324Z,19.40
2018-04-14T22:35:05.683Z,19.00
2018-04-14T22:37:33.234Z,18.30
2018-04-14T22:40:00.864Z,18.40
2018-04-14T22:47:26.242Z,18.70
2018-04-14T22:49:53.627Z,18.70
2018-04-14T22:52:22.643Z,18.80
2018-04-14T22:54:51.035Z,19.10
2018-04-14T22:57:18.555Z,18.90
2018-04-14T22:59:47.056Z,19.00
2018-04-14T23:02:14.678Z,19.30
2018-04-14T23:04:42.127Z,19.30
2018-04-14T23:07:09.490Z,19.20
2018-04-14T23:12:06.803Z,18.40
2018-04-14T23:17:03.434Z,16.90
2018-04-14T23:19:32.739Z,16.70
2018-04-14T23:22:01.036Z,17.00
2018-04-14T23:24:29.205Z,17.50
2018-04-14T23:26:56.611Z,17.50
2018-04-14T23:31:53.073Z,17.80
2018-04-14T23:34:21.904Z,18.00
2018-04-14T23:36:51.418Z,18.00
2018-04-14T23:39:18.750Z,18.10
2018-04-14T23:44:15.283Z,18.00
2018-04-14T23:46:43.393Z,18.00
2018-04-14T23:49:10.793Z,18.10
2018-04-14T23:51:38.211Z,18.20
2018-04-14T23:54:05.719Z,18.10
2018-04-14T23:56:33.318Z,17.60
2018-04-14T23:59:00.727Z,17.50
